sensor_id;sensor_type;location;lat;lon;timestamp;P1;durP1;ratioP1;P2;durP2;ratioP2
68438;SDS011;55421;51.600;5.718;2023-08-08T00:01:10;5.60;;;3.10;;
68438;SDS011;55421;51.600;5.718;2023-08-08T00:03:36;3.20;;;2.70;;
68438;SDS011;55421;51.600;5.718;2023-08-08T00:06:03;3.20;;;2.50;;
68438;SDS011;55421;51.600;5.718;2023-08-08T00:08:29;5.00;;;2.90;;
68438;SDS011;55421;51.600;5.718;2023-08-08T00:10:56;7.30;;;3.10;;
68438;SDS011;55421;51.600;5.718;2023-08-08T00:13:22;4.10;;;2.80;;
68438;SDS011;55421;51.600;5.718;2023-08-08T00:15:49;5.90;;;3.10;;
68438;SDS011;55421;51.600;5.718;2023-08-08T00:18:15;5.40;;;3.10;;
68438;SDS011;55421;51.600;5.718;2023-08-08T00:20:42;5.40;;;3.40;;
68438;SDS011;55421;51.600;5.718;2023-08-08T00:23:08;7.40;;;2.90;;
68438;SDS011;55421;51.600;5.718;2023-08-08T00:25:35;7.10;;;3.20;;
68438;SDS011;55421;51.600;5.718;2023-08-08T00:28:03;6.80;;;3.70;;
68438;SDS011;55421;51.600;5.718;2023-08-08T00:30:30;7.30;;;3.40;;
68438;SDS011;55421;51.600;5.718;2023-08-08T00:32:56;5.60;;;3.00;;
68438;SDS011;55421;51.600;5.718;2023-08-08T00:35:22;7.10;;;2.90;;
68438;SDS011;55421;51.600;5.718;2023-08-08T00:37:49;6.60;;;3.00;;
68438;SDS011;55421;51.600;5.718;2023-08-08T00:40:15;4.80;;;3.00;;
68438;SDS011;55421;51.600;5.718;2023-08-08T00:42:42;6.50;;;3.40;;
68438;SDS011;55421;51.600;5.718;2023-08-08T00:45:08;5.20;;;2.90;;
68438;SDS011;55421;51.600;5.718;2023-08-08T00:47:35;3.00;;;2.70;;
68438;SDS011;55421;51.600;5.718;2023-08-08T00:50:02;6.10;;;3.10;;
68438;SDS011;55421;51.600;5.718;2023-08-08T00:52:30;4.90;;;3.00;;
68438;SDS011;55421;51.600;5.718;2023-08-08T00:54:57;6.00;;;2.70;;
68438;SDS011;55421;51.600;5.718;2023-08-08T00:57:26;4.90;;;3.00;;
68438;SDS011;55421;51.600;5.718;2023-08-08T00:59:52;4.90;;;2.80;;
68438;SDS011;55421;51.600;5.718;2023-08-08T01:02:19;4.50;;;3.20;;
68438;SDS011;55421;51.600;5.718;2023-08-08T01:04:46;5.30;;;2.80;;
68438;SDS011;55421;51.600;5.718;2023-08-08T01:10:19;4.20;;;3.00;;
68438;SDS011;55421;51.600;5.718;2023-08-08T01:12:54;4.60;;;3.00;;
68438;SDS011;55421;51.600;5.718;2023-08-08T01:15:25;5.80;;;3.00;;
68438;SDS011;55421;51.600;5.718;2023-08-08T01:17:54;6.80;;;3.10;;
68438;SDS011;55421;51.600;5.718;2023-08-08T01:20:21;5.30;;;2.90;;
68438;SDS011;55421;51.600;5.718;2023-08-08T01:23:01;4.70;;;3.10;;
68438;SDS011;55421;51.600;5.718;2023-08-08T01:25:39;9.40;;;3.40;;
68438;SDS011;55421;51.600;5.718;2023-08-08T01:28:07;6.20;;;2.70;;
68438;SDS011;55421;51.600;5.718;2023-08-08T01:30:34;4.50;;;3.10;;
68438;SDS011;55421;51.600;5.718;2023-08-08T01:33:01;6.30;;;3.10;;
68438;SDS011;55421;51.600;5.718;2023-08-08T01:35:32;4.20;;;3.10;;
68438;SDS011;55421;51.600;5.718;2023-08-08T01:38:14;5.60;;;3.50;;
68438;SDS011;55421;51.600;5.718;2023-08-08T01:40:46;7.60;;;3.00;;
68438;SDS011;55421;51.600;5.718;2023-08-08T01:43:15;12.00;;;3.50;;
68438;SDS011;55421;51.600;5.718;2023-08-08T01:45:43;3.70;;;3.00;;
68438;SDS011;55421;51.600;5.718;2023-08-08T01:48:11;7.00;;;3.30;;
68438;SDS011;55421;51.600;5.718;2023-08-08T01:50:37;5.80;;;3.40;;
68438;SDS011;55421;51.600;5.718;2023-08-08T01:53:04;6.00;;;3.20;;
68438;SDS011;55421;51.600;5.718;2023-08-08T01:55:31;5.20;;;2.90;;
68438;SDS011;55421;51.600;5.718;2023-08-08T01:57:57;8.80;;;3.90;;
68438;SDS011;55421;51.600;5.718;2023-08-08T02:00:24;8.50;;;3.60;;
68438;SDS011;55421;51.600;5.718;2023-08-08T02:02:50;12.90;;;3.90;;
68438;SDS011;55421;51.600;5.718;2023-08-08T02:05:17;6.50;;;3.40;;
68438;SDS011;55421;51.600;5.718;2023-08-08T02:07:43;6.00;;;3.50;;
68438;SDS011;55421;51.600;5.718;2023-08-08T02:10:10;9.00;;;3.80;;
68438;SDS011;55421;51.600;5.718;2023-08-08T02:12:36;8.70;;;3.70;;
68438;SDS011;55421;51.600;5.718;2023-08-08T02:15:03;8.00;;;3.60;;
68438;SDS011;55421;51.600;5.718;2023-08-08T02:17:30;6.20;;;4.20;;
68438;SDS011;55421;51.600;5.718;2023-08-08T02:19:57;11.40;;;3.40;;
68438;SDS011;55421;51.600;5.718;2023-08-08T02:22:24;7.10;;;3.70;;
68438;SDS011;55421;51.600;5.718;2023-08-08T02:24:51;7.60;;;3.60;;
68438;SDS011;55421;51.600;5.718;2023-08-08T02:27:17;6.10;;;3.80;;
68438;SDS011;55421;51.600;5.718;2023-08-08T02:29:44;9.90;;;4.20;;
68438;SDS011;55421;51.600;5.718;2023-08-08T02:32:10;7.40;;;3.80;;
68438;SDS011;55421;51.600;5.718;2023-08-08T02:34:37;6.30;;;3.70;;
68438;SDS011;55421;51.600;5.718;2023-08-08T02:37:04;12.20;;;4.20;;
68438;SDS011;55421;51.600;5.718;2023-08-08T02:39:31;5.60;;;3.70;;
68438;SDS011;55421;51.600;5.718;2023-08-08T02:41:57;6.70;;;4.20;;
68438;SDS011;55421;51.600;5.718;2023-08-08T02:44:25;5.70;;;3.90;;
68438;SDS011;55421;51.600;5.718;2023-08-08T02:46:51;9.20;;;4.00;;
68438;SDS011;55421;51.600;5.718;2023-08-08T02:49:18;6.90;;;3.80;;
68438;SDS011;55421;51.600;5.718;2023-08-08T02:51:44;8.50;;;4.40;;
68438;SDS011;55421;51.600;5.718;2023-08-08T02:54:10;10.30;;;4.40;;
68438;SDS011;55421;51.600;5.718;2023-08-08T02:56:37;10.30;;;4.20;;
68438;SDS011;55421;51.600;5.718;2023-08-08T02:59:03;9.80;;;3.80;;
68438;SDS011;55421;51.600;5.718;2023-08-08T03:01:30;11.90;;;4.70;;
68438;SDS011;55421;51.600;5.718;2023-08-08T03:03:56;6.50;;;4.30;;
68438;SDS011;55421;51.600;5.718;2023-08-08T03:06:22;13.20;;;4.70;;
68438;SDS011;55421;51.600;5.718;2023-08-08T03:08:49;6.40;;;4.20;;
68438;SDS011;55421;51.600;5.718;2023-08-08T03:11:15;18.60;;;5.00;;
68438;SDS011;55421;51.600;5.718;2023-08-08T03:13:42;12.70;;;4.30;;
68438;SDS011;55421;51.600;5.718;2023-08-08T03:16:08;12.50;;;4.50;;
68438;SDS011;55421;51.600;5.718;2023-08-08T03:18:35;8.90;;;4.30;;
68438;SDS011;55421;51.600;5.718;2023-08-08T03:21:01;10.40;;;5.00;;
68438;SDS011;55421;51.600;5.718;2023-08-08T03:23:28;9.00;;;4.80;;
68438;SDS011;55421;51.600;5.718;2023-08-08T03:25:54;8.60;;;4.40;;
68438;SDS011;55421;51.600;5.718;2023-08-08T03:28:20;8.90;;;4.50;;
68438;SDS011;55421;51.600;5.718;2023-08-08T03:30:47;10.90;;;5.50;;
68438;SDS011;55421;51.600;5.718;2023-08-08T03:33:13;12.50;;;4.80;;
68438;SDS011;55421;51.600;5.718;2023-08-08T03:35:40;16.70;;;4.90;;
68438;SDS011;55421;51.600;5.718;2023-08-08T03:38:06;10.60;;;5.60;;
68438;SDS011;55421;51.600;5.718;2023-08-08T03:40:33;12.10;;;5.10;;
68438;SDS011;55421;51.600;5.718;2023-08-08T03:43:00;12.00;;;5.00;;
68438;SDS011;55421;51.600;5.718;2023-08-08T03:45:27;14.70;;;5.30;;
68438;SDS011;55421;51.600;5.718;2023-08-08T03:47:56;13.00;;;4.70;;
68438;SDS011;55421;51.600;5.718;2023-08-08T03:50:23;12.70;;;5.30;;
68438;SDS011;55421;51.600;5.718;2023-08-08T03:52:49;10.60;;;5.10;;
68438;SDS011;55421;51.600;5.718;2023-08-08T03:55:15;11.20;;;5.20;;
68438;SDS011;55421;51.600;5.718;2023-08-08T03:57:42;10.20;;;5.30;;
68438;SDS011;55421;51.600;5.718;2023-08-08T04:00:09;16.40;;;5.60;;
68438;SDS011;55421;51.600;5.718;2023-08-08T04:02:35;13.10;;;5.60;;
68438;SDS011;55421;51.600;5.718;2023-08-08T04:05:02;13.70;;;5.60;;
68438;SDS011;55421;51.600;5.718;2023-08-08T04:07:28;10.20;;;5.30;;
68438;SDS011;55421;51.600;5.718;2023-08-08T04:09:55;11.10;;;5.70;;
68438;SDS011;55421;51.600;5.718;2023-08-08T04:12:21;15.30;;;5.90;;
68438;SDS011;55421;51.600;5.718;2023-08-08T04:14:48;10.40;;;4.90;;
68438;SDS011;55421;51.600;5.718;2023-08-08T04:17:14;10.00;;;4.90;;
68438;SDS011;55421;51.600;5.718;2023-08-08T04:19:41;9.20;;;4.90;;
68438;SDS011;55421;51.600;5.718;2023-08-08T04:22:07;11.50;;;5.20;;
68438;SDS011;55421;51.600;5.718;2023-08-08T04:24:33;9.80;;;5.20;;
68438;SDS011;55421;51.600;5.718;2023-08-08T04:27:00;13.20;;;6.00;;
68438;SDS011;55421;51.600;5.718;2023-08-08T04:29:26;11.00;;;5.70;;
68438;SDS011;55421;51.600;5.718;2023-08-08T04:31:53;12.50;;;5.80;;
68438;SDS011;55421;51.600;5.718;2023-08-08T04:34:19;10.10;;;4.70;;
68438;SDS011;55421;51.600;5.718;2023-08-08T04:36:45;11.00;;;5.70;;
68438;SDS011;55421;51.600;5.718;2023-08-08T04:39:12;16.50;;;6.50;;
68438;SDS011;55421;51.600;5.718;2023-08-08T04:41:38;11.50;;;5.30;;
68438;SDS011;55421;51.600;5.718;2023-08-08T04:44:05;11.70;;;5.50;;
68438;SDS011;55421;51.600;5.718;2023-08-08T04:46:31;14.50;;;5.60;;
68438;SDS011;55421;51.600;5.718;2023-08-08T04:48:58;14.50;;;5.50;;
68438;SDS011;55421;51.600;5.718;2023-08-08T04:51:24;13.30;;;5.10;;
68438;SDS011;55421;51.600;5.718;2023-08-08T04:53:51;15.70;;;5.90;;
68438;SDS011;55421;51.600;5.718;2023-08-08T04:56:17;12.00;;;5.50;;
68438;SDS011;55421;51.600;5.718;2023-08-08T04:58:44;14.70;;;5.70;;
68438;SDS011;55421;51.600;5.718;2023-08-08T05:01:10;12.40;;;5.10;;
68438;SDS011;55421;51.600;5.718;2023-08-08T05:03:40;13.40;;;5.30;;
68438;SDS011;55421;51.600;5.718;2023-08-08T05:06:07;11.00;;;4.60;;
68438;SDS011;55421;51.600;5.718;2023-08-08T05:08:33;12.40;;;4.90;;
68438;SDS011;55421;51.600;5.718;2023-08-08T05:11:00;12.20;;;5.30;;
68438;SDS011;55421;51.600;5.718;2023-08-08T05:13:26;9.40;;;4.80;;
68438;SDS011;55421;51.600;5.718;2023-08-08T05:15:52;14.30;;;5.30;;
68438;SDS011;55421;51.600;5.718;2023-08-08T05:18:19;11.30;;;5.20;;
68438;SDS011;55421;51.600;5.718;2023-08-08T05:20:45;16.60;;;5.80;;
68438;SDS011;55421;51.600;5.718;2023-08-08T05:23:12;16.10;;;6.00;;
68438;SDS011;55421;51.600;5.718;2023-08-08T05:25:39;12.90;;;5.20;;
68438;SDS011;55421;51.600;5.718;2023-08-08T05:28:06;11.80;;;5.70;;
68438;SDS011;55421;51.600;5.718;2023-08-08T05:30:33;10.70;;;4.70;;
68438;SDS011;55421;51.600;5.718;2023-08-08T05:32:59;17.00;;;6.70;;
68438;SDS011;55421;51.600;5.718;2023-08-08T05:35:26;11.10;;;5.20;;
68438;SDS011;55421;51.600;5.718;2023-08-08T05:37:52;13.70;;;5.20;;
68438;SDS011;55421;51.600;5.718;2023-08-08T05:40:19;13.10;;;5.40;;
68438;SDS011;55421;51.600;5.718;2023-08-08T05:42:45;11.80;;;5.00;;
68438;SDS011;55421;51.600;5.718;2023-08-08T05:45:11;11.10;;;5.00;;
68438;SDS011;55421;51.600;5.718;2023-08-08T05:47:38;13.30;;;4.80;;
68438;SDS011;55421;51.600;5.718;2023-08-08T05:50:05;10.70;;;5.10;;
68438;SDS011;55421;51.600;5.718;2023-08-08T05:52:33;12.00;;;5.00;;
68438;SDS011;55421;51.600;5.718;2023-08-08T05:54:59;14.00;;;5.10;;
68438;SDS011;55421;51.600;5.718;2023-08-08T05:57:26;13.60;;;5.80;;
68438;SDS011;55421;51.600;5.718;2023-08-08T05:59:53;11.30;;;5.60;;
68438;SDS011;55421;51.600;5.718;2023-08-08T06:02:19;11.10;;;4.70;;
68438;SDS011;55421;51.600;5.718;2023-08-08T06:04:46;18.20;;;5.40;;
68438;SDS011;55421;51.600;5.718;2023-08-08T06:07:12;12.40;;;5.20;;
68438;SDS011;55421;51.600;5.718;2023-08-08T06:09:39;13.60;;;5.00;;
68438;SDS011;55421;51.600;5.718;2023-08-08T06:12:06;13.00;;;5.00;;
68438;SDS011;55421;51.600;5.718;2023-08-08T06:14:32;11.80;;;4.70;;
68438;SDS011;55421;51.600;5.718;2023-08-08T06:19:25;12.10;;;4.90;;
68438;SDS011;55421;51.600;5.718;2023-08-08T06:21:52;13.70;;;5.60;;
68438;SDS011;55421;51.600;5.718;2023-08-08T06:24:18;10.20;;;4.80;;
68438;SDS011;55421;51.600;5.718;2023-08-08T06:26:45;9.50;;;4.80;;
68438;SDS011;55421;51.600;5.718;2023-08-08T06:29:11;13.20;;;5.00;;
68438;SDS011;55421;51.600;5.718;2023-08-08T06:31:40;8.80;;;4.20;;
68438;SDS011;55421;51.600;5.718;2023-08-08T06:34:07;8.50;;;3.90;;
68438;SDS011;55421;51.600;5.718;2023-08-08T06:36:34;11.40;;;4.70;;
68438;SDS011;55421;51.600;5.718;2023-08-08T06:39:00;11.00;;;4.90;;
68438;SDS011;55421;51.600;5.718;2023-08-08T06:41:26;12.10;;;4.80;;
68438;SDS011;55421;51.600;5.718;2023-08-08T06:43:53;14.30;;;5.10;;
68438;SDS011;55421;51.600;5.718;2023-08-08T06:46:19;9.10;;;4.40;;
68438;SDS011;55421;51.600;5.718;2023-08-08T06:48:46;11.70;;;5.20;;
68438;SDS011;55421;51.600;5.718;2023-08-08T06:51:14;10.10;;;4.30;;
68438;SDS011;55421;51.600;5.718;2023-08-08T06:53:40;9.60;;;4.20;;
68438;SDS011;55421;51.600;5.718;2023-08-08T06:56:07;10.20;;;4.40;;
68438;SDS011;55421;51.600;5.718;2023-08-08T06:58:33;12.00;;;4.60;;
68438;SDS011;55421;51.600;5.718;2023-08-08T07:01:00;10.70;;;4.50;;
68438;SDS011;55421;51.600;5.718;2023-08-08T07:03:26;8.80;;;3.80;;
68438;SDS011;55421;51.600;5.718;2023-08-08T07:05:52;8.20;;;4.00;;
68438;SDS011;55421;51.600;5.718;2023-08-08T07:08:19;8.40;;;4.30;;
68438;SDS011;55421;51.600;5.718;2023-08-08T07:10:46;9.50;;;3.90;;
68438;SDS011;55421;51.600;5.718;2023-08-08T07:13:13;12.20;;;4.30;;
68438;SDS011;55421;51.600;5.718;2023-08-08T07:15:41;7.80;;;3.80;;
68438;SDS011;55421;51.600;5.718;2023-08-08T07:18:08;10.70;;;4.20;;
68438;SDS011;55421;51.600;5.718;2023-08-08T07:20:34;10.40;;;3.90;;
68438;SDS011;55421;51.600;5.718;2023-08-08T07:23:01;6.90;;;4.10;;
68438;SDS011;55421;51.600;5.718;2023-08-08T07:25:28;12.10;;;4.10;;
68438;SDS011;55421;51.600;5.718;2023-08-08T07:27:54;8.00;;;3.60;;
68438;SDS011;55421;51.600;5.718;2023-08-08T07:30:21;7.50;;;3.50;;
68438;SDS011;55421;51.600;5.718;2023-08-08T07:32:47;8.50;;;3.80;;
68438;SDS011;55421;51.600;5.718;2023-08-08T07:35:14;8.80;;;4.30;;
68438;SDS011;55421;51.600;5.718;2023-08-08T07:37:41;11.30;;;3.80;;
68438;SDS011;55421;51.600;5.718;2023-08-08T07:40:17;7.50;;;3.70;;
68438;SDS011;55421;51.600;5.718;2023-08-08T07:42:48;8.30;;;3.90;;
68438;SDS011;55421;51.600;5.718;2023-08-08T07:45:16;7.80;;;4.10;;
68438;SDS011;55421;51.600;5.718;2023-08-08T07:47:42;6.30;;;3.60;;
68438;SDS011;55421;51.600;5.718;2023-08-08T07:50:10;9.80;;;4.20;;
68438;SDS011;55421;51.600;5.718;2023-08-08T07:52:37;10.30;;;3.90;;
68438;SDS011;55421;51.600;5.718;2023-08-08T07:55:04;9.80;;;4.20;;
68438;SDS011;55421;51.600;5.718;2023-08-08T07:57:32;6.90;;;3.70;;
68438;SDS011;55421;51.600;5.718;2023-08-08T08:00:03;9.00;;;3.80;;
68438;SDS011;55421;51.600;5.718;2023-08-08T08:02:41;8.10;;;3.20;;
68438;SDS011;55421;51.600;5.718;2023-08-08T08:05:09;9.50;;;3.50;;
68438;SDS011;55421;51.600;5.718;2023-08-08T08:07:36;12.00;;;3.40;;
68438;SDS011;55421;51.600;5.718;2023-08-08T08:10:05;6.40;;;3.40;;
68438;SDS011;55421;51.600;5.718;2023-08-08T08:12:35;10.30;;;3.10;;
68438;SDS011;55421;51.600;5.718;2023-08-08T08:15:03;5.50;;;3.00;;
68438;SDS011;55421;51.600;5.718;2023-08-08T08:17:30;7.10;;;2.40;;
68438;SDS011;55421;51.600;5.718;2023-08-08T08:19:57;3.00;;;1.80;;
68438;SDS011;55421;51.600;5.718;2023-08-08T08:22:23;6.70;;;2.10;;
68438;SDS011;55421;51.600;5.718;2023-08-08T08:24:50;4.40;;;2.00;;
68438;SDS011;55421;51.600;5.718;2023-08-08T08:27:17;6.90;;;2.60;;
68438;SDS011;55421;51.600;5.718;2023-08-08T08:29:44;3.90;;;1.70;;
68438;SDS011;55421;51.600;5.718;2023-08-08T08:32:10;5.50;;;2.30;;
68438;SDS011;55421;51.600;5.718;2023-08-08T08:34:36;5.40;;;2.40;;
68438;SDS011;55421;51.600;5.718;2023-08-08T08:37:03;6.60;;;2.40;;
68438;SDS011;55421;51.600;5.718;2023-08-08T08:39:29;5.00;;;2.00;;
68438;SDS011;55421;51.600;5.718;2023-08-08T08:41:59;5.40;;;2.10;;
68438;SDS011;55421;51.600;5.718;2023-08-08T08:44:30;2.30;;;1.50;;
68438;SDS011;55421;51.600;5.718;2023-08-08T08:47:03;3.00;;;1.60;;
68438;SDS011;55421;51.600;5.718;2023-08-08T08:49:31;6.20;;;1.80;;
68438;SDS011;55421;51.600;5.718;2023-08-08T08:51:59;2.70;;;1.60;;
68438;SDS011;55421;51.600;5.718;2023-08-08T08:54:32;6.30;;;2.20;;
68438;SDS011;55421;51.600;5.718;2023-08-08T08:56:59;4.20;;;2.20;;
68438;SDS011;55421;51.600;5.718;2023-08-08T08:59:25;6.70;;;2.50;;
68438;SDS011;55421;51.600;5.718;2023-08-08T09:01:53;8.90;;;2.70;;
68438;SDS011;55421;51.600;5.718;2023-08-08T09:04:21;3.50;;;2.30;;
68438;SDS011;55421;51.600;5.718;2023-08-08T09:06:50;4.60;;;2.40;;
68438;SDS011;55421;51.600;5.718;2023-08-08T09:09:18;4.40;;;2.10;;
68438;SDS011;55421;51.600;5.718;2023-08-08T09:11:49;4.10;;;2.10;;
68438;SDS011;55421;51.600;5.718;2023-08-08T09:14:18;2.70;;;2.20;;
68438;SDS011;55421;51.600;5.718;2023-08-08T09:16:46;3.70;;;1.80;;
68438;SDS011;55421;51.600;5.718;2023-08-08T09:19:14;3.40;;;1.60;;
68438;SDS011;55421;51.600;5.718;2023-08-08T09:21:42;1.90;;;1.50;;
68438;SDS011;55421;51.600;5.718;2023-08-08T09:24:08;2.80;;;1.40;;
68438;SDS011;55421;51.600;5.718;2023-08-08T09:26:35;3.00;;;1.60;;
68438;SDS011;55421;51.600;5.718;2023-08-08T09:29:03;3.40;;;1.70;;
68438;SDS011;55421;51.600;5.718;2023-08-08T09:31:29;5.70;;;1.90;;
68438;SDS011;55421;51.600;5.718;2023-08-08T09:33:58;6.30;;;1.90;;
68438;SDS011;55421;51.600;5.718;2023-08-08T09:36:26;4.90;;;2.20;;
68438;SDS011;55421;51.600;5.718;2023-08-08T09:38:54;4.40;;;2.10;;
68438;SDS011;55421;51.600;5.718;2023-08-08T09:41:23;4.60;;;2.00;;
68438;SDS011;55421;51.600;5.718;2023-08-08T09:43:52;4.50;;;1.90;;
68438;SDS011;55421;51.600;5.718;2023-08-08T09:46:20;4.40;;;1.90;;
68438;SDS011;55421;51.600;5.718;2023-08-08T09:48:48;2.70;;;1.90;;
68438;SDS011;55421;51.600;5.718;2023-08-08T09:51:16;5.20;;;1.70;;
68438;SDS011;55421;51.600;5.718;2023-08-08T09:53:42;4.80;;;2.20;;
68438;SDS011;55421;51.600;5.718;2023-08-08T09:56:10;6.70;;;2.00;;
68438;SDS011;55421;51.600;5.718;2023-08-08T09:58:38;3.90;;;2.10;;
68438;SDS011;55421;51.600;5.718;2023-08-08T10:01:05;3.60;;;2.10;;
68438;SDS011;55421;51.600;5.718;2023-08-08T10:03:31;1.80;;;1.50;;
68438;SDS011;55421;51.600;5.718;2023-08-08T10:05:58;3.60;;;1.50;;
68438;SDS011;55421;51.600;5.718;2023-08-08T10:08:25;5.20;;;1.90;;
68438;SDS011;55421;51.600;5.718;2023-08-08T10:10:52;2.90;;;1.60;;
68438;SDS011;55421;51.600;5.718;2023-08-08T10:13:22;2.80;;;1.40;;
68438;SDS011;55421;51.600;5.718;2023-08-08T10:15:51;3.30;;;1.50;;
68438;SDS011;55421;51.600;5.718;2023-08-08T10:18:21;1.90;;;1.40;;
68438;SDS011;55421;51.600;5.718;2023-08-08T10:20:50;3.60;;;1.40;;
68438;SDS011;55421;51.600;5.718;2023-08-08T10:23:18;3.30;;;1.50;;
68438;SDS011;55421;51.600;5.718;2023-08-08T10:25:46;2.20;;;1.50;;
68438;SDS011;55421;51.600;5.718;2023-08-08T10:30:48;2.60;;;1.20;;
68438;SDS011;55421;51.600;5.718;2023-08-08T10:33:39;2.90;;;1.40;;
68438;SDS011;55421;51.600;5.718;2023-08-08T10:36:09;4.70;;;1.40;;
68438;SDS011;55421;51.600;5.718;2023-08-08T10:38:41;1.60;;;1.20;;
68438;SDS011;55421;51.600;5.718;2023-08-08T10:41:13;3.50;;;1.20;;
68438;SDS011;55421;51.600;5.718;2023-08-08T10:43:53;3.70;;;1.70;;
68438;SDS011;55421;51.600;5.718;2023-08-08T10:46:30;3.60;;;1.80;;
68438;SDS011;55421;51.600;5.718;2023-08-08T10:48:59;5.20;;;2.30;;
68438;SDS011;55421;51.600;5.718;2023-08-08T10:51:44;3.70;;;1.80;;
68438;SDS011;55421;51.600;5.718;2023-08-08T10:54:18;2.90;;;1.50;;
68438;SDS011;55421;51.600;5.718;2023-08-08T10:56:52;3.20;;;1.50;;
68438;SDS011;55421;51.600;5.718;2023-08-08T10:59:24;4.80;;;1.30;;
68438;SDS011;55421;51.600;5.718;2023-08-08T11:01:52;1.90;;;1.40;;
68438;SDS011;55421;51.600;5.718;2023-08-08T11:04:22;2.70;;;1.50;;
68438;SDS011;55421;51.600;5.718;2023-08-08T11:06:52;2.50;;;1.50;;
68438;SDS011;55421;51.600;5.718;2023-08-08T11:09:20;3.50;;;1.50;;
68438;SDS011;55421;51.600;5.718;2023-08-08T11:11:47;1.90;;;1.20;;
68438;SDS011;55421;51.600;5.718;2023-08-08T11:14:14;3.10;;;1.30;;
68438;SDS011;55421;51.600;5.718;2023-08-08T11:16:44;3.00;;;1.50;;
68438;SDS011;55421;51.600;5.718;2023-08-08T11:19:12;3.30;;;1.70;;
68438;SDS011;55421;51.600;5.718;2023-08-08T11:21:42;4.30;;;1.90;;
68438;SDS011;55421;51.600;5.718;2023-08-08T11:24:11;2.30;;;1.70;;
68438;SDS011;55421;51.600;5.718;2023-08-08T11:26:40;2.00;;;1.40;;
68438;SDS011;55421;51.600;5.718;2023-08-08T11:29:07;2.90;;;2.10;;
68438;SDS011;55421;51.600;5.718;2023-08-08T11:31:34;2.50;;;1.70;;
68438;SDS011;55421;51.600;5.718;2023-08-08T11:34:01;4.20;;;1.50;;
68438;SDS011;55421;51.600;5.718;2023-08-08T11:36:33;2.70;;;1.80;;
68438;SDS011;55421;51.600;5.718;2023-08-08T11:39:02;2.60;;;1.90;;
68438;SDS011;55421;51.600;5.718;2023-08-08T11:41:37;2.90;;;2.10;;
68438;SDS011;55421;51.600;5.718;2023-08-08T11:44:04;3.00;;;1.60;;
68438;SDS011;55421;51.600;5.718;2023-08-08T11:46:31;4.80;;;1.90;;
68438;SDS011;55421;51.600;5.718;2023-08-08T11:49:05;4.00;;;2.50;;
68438;SDS011;55421;51.600;5.718;2023-08-08T11:51:33;3.60;;;2.10;;
68438;SDS011;55421;51.600;5.718;2023-08-08T11:54:02;5.60;;;2.20;;
68438;SDS011;55421;51.600;5.718;2023-08-08T11:56:33;3.70;;;2.20;;
68438;SDS011;55421;51.600;5.718;2023-08-08T11:59:01;2.90;;;1.80;;
68438;SDS011;55421;51.600;5.718;2023-08-08T12:01:30;4.60;;;1.70;;
68438;SDS011;55421;51.600;5.718;2023-08-08T12:04:05;2.60;;;1.70;;
68438;SDS011;55421;51.600;5.718;2023-08-08T12:06:33;3.00;;;1.50;;
68438;SDS011;55421;51.600;5.718;2023-08-08T12:09:05;3.20;;;1.50;;
68438;SDS011;55421;51.600;5.718;2023-08-08T12:11:35;1.80;;;1.20;;
68438;SDS011;55421;51.600;5.718;2023-08-08T12:14:07;3.10;;;1.50;;
68438;SDS011;55421;51.600;5.718;2023-08-08T12:16:37;3.80;;;1.60;;
68438;SDS011;55421;51.600;5.718;2023-08-08T12:19:07;2.20;;;1.00;;
68438;SDS011;55421;51.600;5.718;2023-08-08T12:21:37;2.60;;;1.50;;
68438;SDS011;55421;51.600;5.718;2023-08-08T12:24:04;2.70;;;1.40;;
68438;SDS011;55421;51.600;5.718;2023-08-08T12:26:31;3.60;;;1.30;;
68438;SDS011;55421;51.600;5.718;2023-08-08T12:28:58;2.60;;;1.40;;
68438;SDS011;55421;51.600;5.718;2023-08-08T12:31:24;2.20;;;1.20;;
68438;SDS011;55421;51.600;5.718;2023-08-08T12:33:51;3.90;;;1.30;;
68438;SDS011;55421;51.600;5.718;2023-08-08T12:36:18;1.60;;;1.20;;
68438;SDS011;55421;51.600;5.718;2023-08-08T12:38:44;2.20;;;1.20;;
68438;SDS011;55421;51.600;5.718;2023-08-08T12:41:12;3.60;;;1.30;;
68438;SDS011;55421;51.600;5.718;2023-08-08T12:43:39;2.10;;;1.10;;
68438;SDS011;55421;51.600;5.718;2023-08-08T12:46:06;1.30;;;1.00;;
68438;SDS011;55421;51.600;5.718;2023-08-08T12:48:32;2.30;;;1.10;;
68438;SDS011;55421;51.600;5.718;2023-08-08T12:50:59;2.30;;;1.00;;
68438;SDS011;55421;51.600;5.718;2023-08-08T12:53:25;1.00;;;1.00;;
68438;SDS011;55421;51.600;5.718;2023-08-08T12:55:52;0.90;;;0.70;;
68438;SDS011;55421;51.600;5.718;2023-08-08T12:58:18;1.00;;;0.80;;
68438;SDS011;55421;51.600;5.718;2023-08-08T13:00:45;0.90;;;0.90;;
68438;SDS011;55421;51.600;5.718;2023-08-08T13:03:12;0.80;;;0.80;;
68438;SDS011;55421;51.600;5.718;2023-08-08T13:05:39;1.40;;;0.70;;
68438;SDS011;55421;51.600;5.718;2023-08-08T13:08:05;2.40;;;0.80;;
68438;SDS011;55421;51.600;5.718;2023-08-08T13:10:32;0.70;;;0.60;;
68438;SDS011;55421;51.600;5.718;2023-08-08T13:12:59;0.80;;;0.60;;
68438;SDS011;55421;51.600;5.718;2023-08-08T13:15:25;1.00;;;0.70;;
68438;SDS011;55421;51.600;5.718;2023-08-08T13:17:51;0.70;;;0.70;;
68438;SDS011;55421;51.600;5.718;2023-08-08T13:20:18;0.70;;;0.70;;
68438;SDS011;55421;51.600;5.718;2023-08-08T13:22:44;0.50;;;0.50;;
68438;SDS011;55421;51.600;5.718;2023-08-08T13:25:11;1.10;;;0.60;;
68438;SDS011;55421;51.600;5.718;2023-08-08T13:27:37;1.20;;;0.70;;
68438;SDS011;55421;51.600;5.718;2023-08-08T13:30:05;1.60;;;0.70;;
68438;SDS011;55421;51.600;5.718;2023-08-08T13:32:32;1.50;;;1.20;;
68438;SDS011;55421;51.600;5.718;2023-08-08T13:34:58;1.20;;;0.80;;
68438;SDS011;55421;51.600;5.718;2023-08-08T13:37:25;1.60;;;0.70;;
68438;SDS011;55421;51.600;5.718;2023-08-08T13:39:51;1.40;;;0.60;;
68438;SDS011;55421;51.600;5.718;2023-08-08T13:42:18;1.00;;;0.60;;
68438;SDS011;55421;51.600;5.718;2023-08-08T13:44:44;0.90;;;0.60;;
68438;SDS011;55421;51.600;5.718;2023-08-08T13:47:11;1.20;;;0.80;;
68438;SDS011;55421;51.600;5.718;2023-08-08T13:49:37;1.00;;;0.90;;
68438;SDS011;55421;51.600;5.718;2023-08-08T13:52:04;1.30;;;0.70;;
68438;SDS011;55421;51.600;5.718;2023-08-08T13:54:31;1.00;;;0.60;;
68438;SDS011;55421;51.600;5.718;2023-08-08T13:56:57;1.70;;;0.80;;
68438;SDS011;55421;51.600;5.718;2023-08-08T13:59:24;1.60;;;1.10;;
68438;SDS011;55421;51.600;5.718;2023-08-08T14:01:50;1.40;;;0.80;;
68438;SDS011;55421;51.600;5.718;2023-08-08T14:04:17;1.70;;;1.00;;
68438;SDS011;55421;51.600;5.718;2023-08-08T14:06:43;1.50;;;0.70;;
68438;SDS011;55421;51.600;5.718;2023-08-08T14:09:10;0.70;;;0.70;;
68438;SDS011;55421;51.600;5.718;2023-08-08T14:11:37;2.30;;;0.90;;
68438;SDS011;55421;51.600;5.718;2023-08-08T14:14:03;1.10;;;0.80;;
68438;SDS011;55421;51.600;5.718;2023-08-08T14:16:30;1.80;;;0.90;;
68438;SDS011;55421;51.600;5.718;2023-08-08T14:18:56;0.80;;;0.80;;
68438;SDS011;55421;51.600;5.718;2023-08-08T14:21:23;1.00;;;0.80;;
68438;SDS011;55421;51.600;5.718;2023-08-08T14:23:49;2.80;;;0.70;;
68438;SDS011;55421;51.600;5.718;2023-08-08T14:26:16;2.20;;;0.80;;
68438;SDS011;55421;51.600;5.718;2023-08-08T14:28:42;3.20;;;0.90;;
68438;SDS011;55421;51.600;5.718;2023-08-08T14:31:09;1.00;;;1.00;;
68438;SDS011;55421;51.600;5.718;2023-08-08T14:33:35;1.00;;;0.70;;
68438;SDS011;55421;51.600;5.718;2023-08-08T14:36:02;2.20;;;0.70;;
68438;SDS011;55421;51.600;5.718;2023-08-08T14:38:34;0.90;;;0.80;;
68438;SDS011;55421;51.600;5.718;2023-08-08T14:41:02;1.10;;;0.70;;
68438;SDS011;55421;51.600;5.718;2023-08-08T14:43:28;4.00;;;0.90;;
68438;SDS011;55421;51.600;5.718;2023-08-08T14:45:55;0.70;;;0.60;;
68438;SDS011;55421;51.600;5.718;2023-08-08T14:48:21;1.80;;;0.80;;
68438;SDS011;55421;51.600;5.718;2023-08-08T14:50:48;1.70;;;0.80;;
68438;SDS011;55421;51.600;5.718;2023-08-08T14:53:14;1.70;;;0.80;;